createdAt,value
2018-06-09T00:00:16.519Z,19.96
2018-06-09T00:02:46.156Z,19.96
2018-06-09T00:05:15.803Z,19.90
2018-06-09T00:07:45.475Z,19.87
2018-06-09T00:10:15.116Z,19.82
2018-06-09T00:12:44.704Z,19.80
2018-06-09T00:15:14.285Z,19.76
2018-06-09T00:17:50.302Z,19.79
2018-06-09T00:20:19.941Z,19.74
2018-06-09T00:22:49.604Z,19.73
2018-06-09T00:25:19.232Z,19.71
2018-06-09T00:27:48.875Z,19.68
2018-06-09T00:30:18.555Z,19.65
2018-06-09T00:32:48.151Z,19.66
2018-06-09T00:35:17.729Z,19.59
2018-06-09T00:37:47.208Z,19.55
2018-06-09T00:40:16.888Z,19.55
2018-06-09T00:42:46.552Z,19.55
2018-06-09T00:45:16.180Z,19.45
2018-06-09T00:47:45.748Z,19.39
2018-06-09T00:50:15.370Z,19.40
2018-06-09T00:52:45.018Z,19.26
2018-06-09T00:55:15.600Z,19.37
2018-06-09T00:57:45.242Z,19.30
2018-06-09T01:00:15.084Z,19.28
2018-06-09T01:02:44.716Z,19.18
2018-06-09T01:05:14.372Z,19.28
2018-06-09T01:07:43.931Z,19.21
2018-06-09T01:10:13.695Z,19.18
2018-06-09T01:12:43.398Z,19.09
2018-06-09T01:15:13.114Z,19.08
2018-06-09T01:17:42.780Z,19.03
2018-06-09T01:20:12.143Z,19.01
2018-06-09T01:22:41.786Z,19.00
2018-06-09T01:25:11.399Z,19.00
2018-06-09T01:27:41.116Z,19.00
2018-06-09T01:30:10.457Z,18.97
2018-06-09T01:32:40.145Z,19.00
2018-06-09T01:35:09.805Z,18.90
2018-06-09T01:37:39.633Z,18.95
2018-06-09T01:40:09.288Z,18.82
2018-06-09T01:42:41.865Z,18.81
2018-06-09T01:45:11.460Z,18.78
2018-06-09T01:47:41.058Z,18.83
2018-06-09T01:50:10.612Z,18.78
2018-06-09T01:52:40.269Z,18.75
2018-06-09T01:55:09.919Z,18.71
2018-06-09T01:57:39.535Z,18.76
2018-06-09T02:00:09.116Z,18.73
2018-06-09T02:02:41.511Z,18.78
2018-06-09T02:05:11.112Z,18.77
2018-06-09T02:07:40.672Z,18.82
2018-06-09T02:10:10.295Z,18.70
2018-06-09T02:12:39.927Z,18.70
2018-06-09T02:15:09.577Z,18.71
2018-06-09T02:17:39.156Z,18.66
2018-06-09T02:20:08.752Z,18.68
2018-06-09T02:22:38.396Z,18.63
2018-06-09T02:25:08.399Z,18.55
2018-06-09T02:27:37.987Z,18.56
2018-06-09T02:30:08.034Z,18.52
2018-06-09T02:32:37.578Z,18.54
2018-06-09T02:35:07.544Z,18.50
2018-06-09T02:37:37.103Z,18.50
2018-06-09T02:40:07.349Z,18.44
2018-06-09T02:42:36.972Z,18.46
2018-06-09T02:45:07.156Z,18.42
2018-06-09T02:47:36.879Z,18.43
2018-06-09T02:50:06.785Z,18.36
2018-06-09T02:52:36.379Z,18.32
2018-06-09T02:55:06.078Z,18.33
2018-06-09T02:57:35.644Z,18.40
2018-06-09T03:00:05.717Z,18.31
2018-06-09T03:02:35.297Z,18.32
2018-06-09T03:05:04.907Z,18.30
2018-06-09T03:07:34.536Z,18.33
2018-06-09T03:10:04.117Z,18.29
2018-06-09T03:12:33.710Z,18.30
2018-06-09T03:15:03.350Z,18.28
2018-06-09T03:17:32.891Z,18.30
2018-06-09T03:20:02.475Z,18.36
2018-06-09T03:22:32.020Z,18.28
2018-06-09T03:25:01.618Z,18.27
2018-06-09T03:27:31.150Z,18.30
2018-06-09T03:30:00.745Z,18.30
2018-06-09T03:32:30.386Z,18.31
2018-06-09T03:34:59.897Z,18.31
2018-06-09T03:37:29.525Z,18.33
2018-06-09T03:39:59.102Z,18.30
2018-06-09T03:42:28.691Z,18.42
2018-06-09T03:44:58.254Z,18.50
2018-06-09T03:47:27.833Z,18.50
2018-06-09T03:49:57.480Z,18.44
2018-06-09T03:52:27.091Z,18.46
2018-06-09T03:54:56.630Z,18.50
2018-06-09T03:57:26.200Z,18.49
2018-06-09T03:59:55.788Z,18.49
2018-06-09T04:02:25.342Z,18.44
2018-06-09T04:04:54.880Z,18.41
2018-06-09T04:07:24.638Z,18.45
2018-06-09T04:09:54.207Z,18.52
2018-06-09T04:12:23.853Z,18.68
2018-06-09T04:14:53.464Z,18.65
2018-06-09T04:17:23.312Z,18.56
2018-06-09T04:19:52.900Z,18.57
2018-06-09T04:22:22.509Z,18.74
2018-06-09T04:24:52.135Z,18.90
2018-06-09T04:27:21.716Z,18.87
2018-06-09T04:29:51.338Z,18.63
2018-06-09T04:32:22.085Z,18.71
2018-06-09T04:34:51.654Z,18.67
2018-06-09T04:37:21.173Z,18.72
2018-06-09T04:39:50.809Z,18.76
2018-06-09T04:42:20.055Z,18.83
2018-06-09T04:44:49.704Z,18.63
2018-06-09T04:47:19.651Z,18.91
2018-06-09T04:49:49.276Z,18.84
2018-06-09T04:52:19.276Z,18.94
2018-06-09T04:54:48.920Z,18.79
2018-06-09T04:57:18.951Z,18.99
2018-06-09T04:59:48.589Z,19.03
2018-06-09T05:02:18.522Z,19.20
2018-06-09T05:04:48.168Z,19.06
2018-06-09T05:07:18.000Z,19.38
2018-06-09T05:09:48.776Z,19.21
2018-06-09T05:12:19.387Z,19.07
2018-06-09T05:14:49.022Z,19.05
2018-06-09T05:17:18.789Z,19.06
2018-06-09T05:19:48.488Z,19.18
2018-06-09T05:22:18.428Z,19.59
2018-06-09T05:24:48.015Z,19.58
2018-06-09T05:27:17.646Z,21.00
2018-06-09T05:29:47.253Z,21.66
2018-06-09T05:32:16.865Z,24.05
2018-06-09T05:34:46.427Z,24.60
2018-06-09T05:37:15.944Z,24.42
2018-06-09T05:39:45.650Z,24.90
2018-06-09T05:42:15.207Z,24.12
2018-06-09T05:44:44.757Z,25.73
2018-06-09T05:47:14.322Z,22.82
2018-06-09T05:49:43.906Z,24.12
2018-06-09T05:52:13.557Z,25.33
2018-06-09T05:54:43.188Z,25.39
2018-06-09T05:57:12.840Z,25.01
2018-06-09T05:59:42.577Z,27.27
2018-06-09T06:02:12.217Z,26.25
2018-06-09T06:04:41.772Z,25.14
2018-06-09T06:07:11.350Z,25.57
2018-06-09T06:09:40.874Z,23.03
2018-06-09T06:12:10.436Z,23.10
2018-06-09T06:14:39.985Z,22.77
2018-06-09T06:17:09.689Z,22.60
2018-06-09T06:19:39.326Z,21.99
2018-06-09T06:22:08.887Z,23.72
2018-06-09T06:24:38.452Z,23.83
2018-06-09T06:27:08.056Z,25.17
2018-06-09T06:29:37.706Z,26.07
2018-06-09T06:32:07.360Z,24.87
2018-06-09T06:34:37.109Z,25.03
2018-06-09T06:37:06.733Z,24.53
2018-06-09T06:39:36.307Z,23.72
2018-06-09T06:42:05.896Z,23.43
2018-06-09T06:44:35.553Z,24.28
2018-06-09T06:47:05.522Z,25.99
2018-06-09T06:49:35.315Z,26.84
2018-06-09T06:52:05.019Z,28.19
2018-06-09T06:54:34.681Z,27.27
2018-06-09T06:57:04.304Z,25.53
2018-06-09T06:59:34.023Z,26.90
2018-06-09T07:02:03.914Z,25.49
2018-06-09T07:04:33.471Z,23.56
2018-06-09T07:07:03.070Z,23.17
2018-06-09T07:09:32.652Z,23.33
2018-06-09T07:12:02.261Z,23.56
2018-06-09T07:14:32.038Z,23.16
2018-06-09T07:17:01.691Z,22.99
2018-06-09T07:19:31.696Z,22.73
2018-06-09T07:22:01.441Z,23.55
2018-06-09T07:24:31.383Z,22.80
2018-06-09T07:27:00.988Z,22.28
2018-06-09T07:29:30.974Z,22.49
2018-06-09T07:32:00.612Z,22.54
2018-06-09T07:34:30.704Z,22.73
2018-06-09T07:37:00.244Z,22.88
2018-06-09T07:39:30.281Z,23.15
2018-06-09T07:41:59.858Z,23.07
2018-06-09T07:44:29.751Z,23.23
2018-06-09T07:46:59.310Z,22.79
2018-06-09T07:49:28.967Z,23.96
2018-06-09T07:51:58.676Z,23.38
2018-06-09T07:54:28.365Z,23.52
2018-06-09T07:56:58.084Z,23.35
2018-06-09T07:59:28.269Z,23.40
2018-06-09T08:01:57.898Z,23.00
2018-06-09T08:04:27.565Z,24.29
2018-06-09T08:06:57.303Z,25.30
2018-06-09T08:09:26.823Z,25.81
2018-06-09T08:11:56.583Z,25.40
2018-06-09T08:14:26.475Z,25.28
2018-06-09T08:16:56.042Z,25.19
2018-06-09T08:19:25.714Z,23.85
2018-06-09T08:21:55.422Z,25.75
2018-06-09T08:24:25.150Z,25.94
2018-06-09T08:26:54.729Z,25.45
2018-06-09T08:29:24.369Z,27.94
2018-06-09T08:31:54.008Z,26.92
2018-06-09T08:34:23.566Z,25.59
2018-06-09T08:36:53.202Z,25.62
2018-06-09T08:39:22.977Z,25.36
2018-06-09T08:41:53.316Z,27.20
2018-06-09T08:44:22.964Z,27.12
2018-06-09T08:46:52.626Z,25.05
2018-06-09T08:49:22.284Z,27.45
2018-06-09T08:51:51.872Z,25.43
2018-06-09T08:54:21.474Z,25.67
2018-06-09T08:56:51.113Z,26.39
2018-06-09T08:59:20.736Z,26.17
2018-06-09T09:01:50.360Z,26.70
2018-06-09T09:04:19.997Z,26.25
2018-06-09T09:06:49.252Z,27.78
2018-06-09T09:09:18.896Z,26.12
2018-06-09T09:11:48.507Z,26.62
2018-06-09T09:14:17.821Z,25.45
2018-06-09T09:16:47.415Z,26.80
2018-06-09T09:19:17.153Z,26.39
2018-06-09T09:21:46.865Z,27.34
2018-06-09T09:24:16.553Z,27.12
2018-06-09T09:26:45.857Z,27.47
2018-06-09T09:29:15.667Z,26.50
2018-06-09T09:31:45.596Z,28.24
2018-06-09T09:34:15.339Z,28.06
2018-06-09T09:36:44.959Z,29.04
2018-06-09T09:39:14.613Z,27.37
2018-06-09T09:41:44.259Z,28.10
2018-06-09T09:44:13.898Z,28.17
2018-06-09T09:46:43.975Z,28.58
2018-06-09T09:49:13.594Z,28.19
2018-06-09T09:51:43.809Z,26.83
2018-06-09T09:54:13.491Z,27.33
2018-06-09T09:56:43.679Z,27.49
2018-06-09T09:59:13.312Z,26.71
2018-06-09T10:01:43.073Z,28.29
2018-06-09T10:04:13.134Z,29.18
2018-06-09T10:06:42.929Z,29.09
2018-06-09T10:09:12.569Z,31.04
2018-06-09T10:11:42.443Z,29.33
2018-06-09T10:14:12.117Z,30.00
2018-06-09T10:16:42.481Z,29.48
2018-06-09T10:19:12.136Z,29.43
2018-06-09T10:21:41.829Z,30.15
2018-06-09T10:24:11.417Z,31.28
2018-06-09T10:26:41.065Z,30.77
2018-06-09T10:29:10.683Z,30.14
2018-06-09T10:31:40.544Z,28.95
2018-06-09T10:34:10.148Z,28.56
2018-06-09T10:36:39.818Z,29.16
2018-06-09T10:39:09.777Z,28.17
2018-06-09T10:41:39.491Z,27.24
2018-06-09T10:44:09.195Z,28.40
2018-06-09T10:46:38.856Z,27.05
2018-06-09T10:49:08.499Z,28.83
2018-06-09T10:51:38.134Z,27.89
2018-06-09T10:54:07.809Z,28.46
2018-06-09T10:56:37.428Z,28.00
2018-06-09T10:59:07.107Z,28.78
2018-06-09T11:01:36.632Z,27.33
2018-06-09T11:04:06.343Z,27.20
2018-06-09T11:06:36.113Z,27.52
2018-06-09T11:09:07.864Z,26.67
2018-06-09T11:11:37.635Z,27.01
2018-06-09T11:14:07.283Z,27.64
2018-06-09T11:16:36.856Z,27.50
2018-06-09T11:19:06.853Z,27.64
2018-06-09T11:21:36.542Z,27.85
2018-06-09T11:24:06.272Z,27.52
2018-06-09T11:26:35.901Z,27.09
2018-06-09T11:29:05.544Z,27.18
2018-06-09T11:31:35.191Z,27.22
2018-06-09T11:34:04.904Z,27.38
2018-06-09T11:36:34.479Z,26.77
2018-06-09T11:39:04.734Z,27.22
2018-06-09T11:41:34.367Z,27.42
2018-06-09T11:44:04.219Z,27.48
2018-06-09T11:46:33.865Z,26.94
2018-06-09T11:49:03.493Z,27.16
2018-06-09T11:51:33.070Z,27.61
2018-06-09T11:54:02.687Z,27.18
2018-06-09T11:56:32.340Z,27.36
2018-06-09T11:59:02.015Z,27.23
2018-06-09T12:01:31.630Z,27.03
2018-06-09T12:04:01.267Z,27.21
2018-06-09T12:06:30.888Z,27.64
2018-06-09T12:09:00.745Z,27.23
2018-06-09T12:11:30.373Z,27.48
2018-06-09T12:13:59.955Z,27.91
2018-06-09T12:16:29.526Z,28.14
2018-06-09T12:18:58.936Z,27.46
2018-06-09T12:21:28.482Z,27.81
2018-06-09T12:23:58.245Z,28.11
2018-06-09T12:26:27.870Z,28.11
2018-06-09T12:28:57.625Z,28.16
2018-06-09T12:31:27.228Z,28.32
2018-06-09T12:33:58.314Z,27.94
2018-06-09T12:36:27.934Z,28.36
2018-06-09T12:38:57.529Z,28.51
2018-06-09T12:41:27.165Z,28.56
2018-06-09T12:43:57.323Z,27.86
2018-06-09T12:46:27.011Z,28.04
2018-06-09T12:48:57.177Z,28.49
2018-06-09T12:51:26.823Z,28.53
2018-06-09T12:53:56.984Z,28.18
2018-06-09T12:56:26.673Z,28.42
2018-06-09T12:58:56.682Z,28.75
2018-06-09T13:01:26.446Z,28.83
2018-06-09T13:03:56.404Z,28.88
2018-06-09T13:06:26.033Z,28.51
2018-06-09T13:08:55.838Z,28.45
2018-06-09T13:11:25.445Z,29.09
2018-06-09T13:13:55.118Z,29.50
2018-06-09T13:16:24.841Z,28.63
2018-06-09T13:18:54.404Z,29.05
2018-06-09T13:21:24.117Z,29.27
2018-06-09T13:23:53.804Z,28.68
2018-06-09T13:26:23.475Z,28.75
2018-06-09T13:28:53.090Z,28.74
2018-06-09T13:31:22.747Z,28.53
2018-06-09T13:33:52.392Z,28.81
2018-06-09T13:36:22.035Z,29.02
2018-06-09T13:38:51.678Z,28.82
2018-06-09T13:41:21.282Z,29.20
2018-06-09T13:43:50.788Z,28.63
2018-06-09T13:46:20.400Z,28.84
2018-06-09T13:48:49.899Z,29.39
2018-06-09T13:51:19.502Z,29.17
2018-06-09T13:53:49.111Z,29.20
2018-06-09T13:56:18.681Z,29.44
2018-06-09T13:58:48.354Z,29.48
2018-06-09T14:01:17.943Z,29.41
2018-06-09T14:03:47.644Z,28.97
2018-06-09T14:06:17.248Z,28.95
2018-06-09T14:08:46.860Z,29.06
2018-06-09T14:11:16.517Z,29.36
2018-06-09T14:13:46.147Z,29.10
2018-06-09T14:16:15.440Z,29.56
2018-06-09T14:18:45.040Z,29.63
2018-06-09T14:21:14.667Z,29.04
2018-06-09T14:23:44.373Z,29.30
2018-06-09T14:26:13.963Z,29.50
2018-06-09T14:28:43.530Z,29.20
2018-06-09T14:31:13.172Z,29.49
2018-06-09T14:33:42.908Z,29.36
2018-06-09T14:36:12.477Z,29.82
2018-06-09T14:38:42.114Z,29.97
2018-06-09T14:41:11.748Z,29.43
2018-06-09T14:43:41.386Z,29.40
2018-06-09T14:46:11.025Z,29.44
2018-06-09T14:48:40.599Z,29.43
2018-06-09T14:51:10.205Z,29.61
2018-06-09T14:53:39.873Z,29.80
2018-06-09T14:56:09.126Z,29.76
2018-06-09T14:58:38.768Z,29.55
2018-06-09T15:01:08.802Z,29.36
2018-06-09T15:03:38.431Z,29.60
2018-06-09T15:06:08.304Z,29.40
2018-06-09T15:08:37.998Z,29.64
2018-06-09T15:11:08.133Z,29.50
2018-06-09T15:13:37.696Z,29.85
2018-06-09T15:16:07.428Z,29.70
2018-06-09T15:18:37.019Z,29.83
2018-06-09T15:21:06.666Z,29.79
2018-06-09T15:23:36.292Z,30.11
2018-06-09T15:26:06.012Z,29.71
2018-06-09T15:28:35.644Z,29.93
2018-06-09T15:31:05.540Z,29.85
2018-06-09T15:33:35.177Z,29.85
2018-06-09T15:36:05.961Z,30.10
2018-06-09T15:38:35.554Z,29.89
2018-06-09T15:41:05.167Z,30.17
2018-06-09T15:43:34.770Z,30.22
2018-06-09T15:46:04.499Z,30.11
2018-06-09T15:48:34.116Z,30.28
2018-06-09T15:51:03.752Z,30.41
2018-06-09T15:53:33.327Z,29.99
2018-06-09T15:56:03.040Z,30.05
2018-06-09T15:58:33.598Z,30.15
2018-06-09T16:01:03.325Z,29.81
2018-06-09T16:03:33.036Z,30.21
2018-06-09T16:06:02.757Z,30.35
2018-06-09T16:08:32.339Z,30.26
2018-06-09T16:11:02.184Z,30.14
2018-06-09T16:13:32.012Z,30.19
2018-06-09T16:16:01.705Z,30.52
2018-06-09T16:18:31.278Z,29.42
2018-06-09T16:21:00.995Z,29.49
2018-06-09T16:23:30.668Z,29.41
2018-06-09T16:26:00.294Z,29.58
2018-06-09T16:28:29.928Z,29.36
2018-06-09T16:30:59.622Z,29.27
2018-06-09T16:33:29.209Z,29.47
2018-06-09T16:35:58.736Z,29.19
2018-06-09T16:38:28.498Z,29.43
2018-06-09T16:41:04.428Z,29.29
2018-06-09T16:43:34.035Z,29.65
2018-06-09T16:46:03.694Z,29.84
2018-06-09T16:48:34.220Z,29.84
2018-06-09T16:51:03.800Z,29.59
2018-06-09T16:53:33.341Z,29.27
2018-06-09T16:56:02.993Z,29.46
2018-06-09T16:58:32.617Z,29.71
2018-06-09T17:01:02.262Z,29.79
2018-06-09T17:03:32.365Z,29.81
2018-06-09T17:06:01.715Z,29.96
2018-06-09T17:08:31.417Z,29.90
2018-06-09T17:11:01.087Z,29.93
2018-06-09T17:13:30.641Z,29.85
2018-06-09T17:16:00.198Z,29.87
2018-06-09T17:18:29.947Z,29.44
2018-06-09T17:20:59.564Z,29.46
2018-06-09T17:23:29.308Z,29.32
2018-06-09T17:25:58.922Z,29.40
2018-06-09T17:28:28.684Z,29.28
2018-06-09T17:30:58.250Z,28.82
2018-06-09T17:33:27.916Z,29.24
2018-06-09T17:35:57.496Z,29.17
2018-06-09T17:38:27.160Z,28.82
2018-06-09T17:40:56.730Z,29.08
2018-06-09T17:43:26.339Z,29.00
2018-06-09T17:45:56.022Z,29.01
2018-06-09T17:48:25.877Z,28.98
2018-06-09T17:50:55.580Z,28.33
2018-06-09T17:53:25.157Z,28.63
2018-06-09T17:55:54.815Z,28.98
2018-06-09T17:58:24.460Z,29.07
2018-06-09T18:00:54.176Z,28.62
2018-06-09T18:03:23.774Z,28.83
2018-06-09T18:05:53.378Z,28.72
2018-06-09T18:08:23.268Z,28.44
2018-06-09T18:10:53.082Z,28.15
2018-06-09T18:13:23.268Z,28.45
2018-06-09T18:15:52.876Z,28.37
2018-06-09T18:18:22.986Z,28.33
2018-06-09T18:20:52.572Z,28.32
2018-06-09T18:23:26.602Z,28.13
2018-06-09T18:25:56.179Z,28.26
2018-06-09T18:28:25.784Z,28.12
2018-06-09T18:30:55.400Z,28.04
2018-06-09T18:33:25.329Z,27.78
2018-06-09T18:35:54.885Z,27.89
2018-06-09T18:38:24.859Z,27.97
2018-06-09T18:40:54.598Z,27.82
2018-06-09T18:43:24.349Z,27.89
2018-06-09T18:45:54.121Z,27.73
2018-06-09T18:48:23.934Z,27.86
2018-06-09T18:50:53.534Z,27.71
2018-06-09T18:53:23.522Z,27.56
2018-06-09T18:55:53.177Z,27.51
2018-06-09T18:58:22.837Z,27.84
2018-06-09T19:00:52.691Z,27.60
2018-06-09T19:03:22.399Z,27.19
2018-06-09T19:05:52.653Z,27.46
2018-06-09T19:08:22.247Z,27.48
2018-06-09T19:10:51.937Z,27.50
2018-06-09T19:13:21.631Z,27.50
2018-06-09T19:15:50.932Z,27.41
2018-06-09T19:18:20.499Z,27.22
2018-06-09T19:20:50.105Z,27.11
2018-06-09T19:23:19.837Z,27.16
2018-06-09T19:25:49.421Z,27.14
2018-06-09T19:28:19.236Z,27.12
2018-06-09T19:30:48.886Z,27.16
2018-06-09T19:33:18.527Z,27.13
2018-06-09T19:35:48.371Z,27.08
2018-06-09T19:38:18.074Z,26.98
2018-06-09T19:40:48.009Z,26.98
2018-06-09T19:43:17.694Z,26.89
2018-06-09T19:45:47.327Z,26.84
2018-06-09T19:48:16.974Z,26.75
2018-06-09T19:50:46.736Z,26.67
2018-06-09T19:53:16.386Z,26.71
2018-06-09T19:55:46.094Z,26.69
2018-06-09T19:58:15.861Z,26.53
2018-06-09T20:00:45.999Z,26.39
2018-06-09T20:03:15.727Z,26.29
2018-06-09T20:05:45.426Z,26.02
2018-06-09T20:08:15.115Z,25.68
2018-06-09T20:10:44.708Z,25.57
2018-06-09T20:13:14.304Z,25.69
2018-06-09T20:15:43.892Z,25.62
2018-06-09T20:18:13.553Z,25.57
2018-06-09T20:20:43.265Z,25.52
2018-06-09T20:23:12.916Z,25.45
2018-06-09T20:25:42.623Z,25.39
2018-06-09T20:28:12.295Z,25.29
2018-06-09T20:30:42.036Z,25.29
2018-06-09T20:33:11.707Z,25.29
2018-06-09T20:35:41.532Z,25.25
2018-06-09T20:38:11.188Z,25.20
2018-06-09T20:40:40.932Z,25.14
2018-06-09T20:43:10.703Z,25.08
2018-06-09T20:45:40.578Z,25.03
2018-06-09T20:48:10.327Z,24.94
2018-06-09T20:50:40.076Z,25.01
2018-06-09T20:53:09.760Z,24.95
2018-06-09T20:55:39.671Z,24.82
2018-06-09T20:58:09.480Z,24.77
2018-06-09T21:00:39.151Z,24.71
2018-06-09T21:03:08.856Z,24.67
2018-06-09T21:05:38.587Z,24.84
2018-06-09T21:08:08.244Z,24.76
2018-06-09T21:10:37.890Z,24.73
2018-06-09T21:13:07.955Z,24.80
2018-06-09T21:15:37.615Z,24.70
2018-06-09T21:18:07.325Z,24.74
2018-06-09T21:20:37.097Z,24.52
2018-06-09T21:23:06.795Z,24.40
2018-06-09T21:25:36.736Z,24.28
2018-06-09T21:28:13.221Z,24.22
2018-06-09T21:30:43.673Z,24.13
2018-06-09T21:34:32.760Z,23.98
2018-06-09T21:37:13.781Z,23.97
2018-06-09T21:39:48.721Z,23.89
2018-06-09T21:42:24.009Z,23.92
2018-06-09T21:44:59.068Z,23.96
2018-06-09T21:47:33.385Z,23.94
2018-06-09T21:50:03.330Z,23.91
2018-06-09T21:52:32.960Z,23.89
2018-06-09T21:55:02.568Z,24.02
2018-06-09T21:57:32.937Z,24.02
2018-06-09T22:00:02.585Z,23.75
2018-06-09T22:02:32.377Z,23.53
2018-06-09T22:05:02.049Z,23.57
2018-06-09T22:07:31.678Z,23.52
2018-06-09T22:10:01.417Z,23.38
2018-06-09T22:12:31.161Z,23.25
2018-06-09T22:15:00.727Z,23.17
2018-06-09T22:17:30.465Z,23.09
2018-06-09T22:20:00.103Z,23.08
2018-06-09T22:22:29.918Z,23.01
2018-06-09T22:24:59.834Z,22.99
2018-06-09T22:27:29.805Z,22.88
2018-06-09T22:29:59.787Z,22.84
2018-06-09T22:32:31.238Z,22.83
2018-06-09T22:35:01.041Z,22.77
2018-06-09T22:37:30.798Z,22.74
2018-06-09T22:40:00.436Z,22.70
2018-06-09T22:42:30.096Z,22.69
2018-06-09T22:44:59.800Z,22.70
2018-06-09T22:47:29.528Z,22.85
2018-06-09T22:49:59.178Z,22.83
2018-06-09T22:52:28.879Z,22.76
2018-06-09T22:54:58.790Z,22.48
2018-06-09T22:57:28.453Z,22.51
2018-06-09T22:59:58.454Z,22.59
2018-06-09T23:02:28.141Z,22.63
2018-06-09T23:04:57.856Z,22.54
2018-06-09T23:07:27.458Z,22.56
2018-06-09T23:09:57.149Z,22.51
2018-06-09T23:12:26.655Z,22.43
2018-06-09T23:14:56.288Z,22.34
2018-06-09T23:17:25.984Z,22.32
2018-06-09T23:19:55.580Z,22.34
2018-06-09T23:22:25.266Z,22.36
2018-06-09T23:24:54.860Z,22.22
2018-06-09T23:27:24.507Z,22.23
2018-06-09T23:29:56.263Z,22.19
2018-06-09T23:32:28.064Z,22.15
2018-06-09T23:34:57.717Z,22.19
2018-06-09T23:37:27.445Z,22.10
2018-06-09T23:39:57.015Z,22.08
2018-06-09T23:42:26.688Z,22.03
2018-06-09T23:44:56.601Z,22.19
2018-06-09T23:47:26.392Z,22.03
2018-06-09T23:49:56.097Z,21.97
2018-06-09T23:52:25.817Z,21.99
2018-06-09T23:54:55.582Z,22.08
2018-06-09T23:57:25.237Z,21.91
2018-06-09T23:59:54.976Z,21.80
